createdAt,value
2022-08-11T00:01:29.515Z,16.81
2022-08-11T00:04:05.170Z,16.78
2022-08-11T00:06:39.406Z,16.77
2022-08-11T00:09:21.501Z,16.75
2022-08-11T00:11:58.822Z,16.74
2022-08-11T00:14:35.993Z,16.71
2022-08-11T00:17:14.080Z,16.70
2022-08-11T00:20:14.529Z,16.69
2022-08-11T00:22:40.261Z,16.66
2022-08-11T00:25:18.391Z,16.62
2022-08-11T00:27:48.676Z,16.57
2022-08-11T00:30:18.229Z,16.52
2022-08-11T00:32:56.487Z,16.47
2022-08-11T00:35:53.887Z,16.42
2022-08-11T00:38:24.969Z,16.35
2022-08-11T00:41:34.024Z,16.30
2022-08-11T00:44:20.650Z,16.25
2022-08-11T00:47:16.915Z,16.19
2022-08-11T00:50:29.574Z,16.14
2022-08-11T00:53:30.963Z,16.06
2022-08-11T00:56:39.814Z,15.96
2022-08-11T00:59:45.714Z,15.85
2022-08-11T01:03:03.007Z,15.78
2022-08-11T01:05:31.313Z,15.72
2022-08-11T01:08:37.063Z,15.66
2022-08-11T01:12:02.527Z,15.60
2022-08-11T01:15:27.292Z,15.53
2022-08-11T01:18:40.618Z,15.47
2022-08-11T01:21:55.264Z,15.36
2022-08-11T01:25:21.678Z,15.26
2022-08-11T01:29:03.950Z,15.19
2022-08-11T01:32:13.559Z,15.11
2022-08-11T01:35:25.727Z,15.04
2022-08-11T01:38:31.553Z,14.97
2022-08-11T01:42:01.513Z,14.90
2022-08-11T01:44:52.823Z,14.82
2022-08-11T01:47:52.984Z,14.76
2022-08-11T01:50:32.084Z,14.70
2022-08-11T01:53:40.401Z,14.65
2022-08-11T01:56:47.067Z,14.58
2022-08-11T01:59:34.429Z,14.52
2022-08-11T02:02:48.536Z,14.46
2022-08-11T02:05:42.872Z,14.41
2022-08-11T02:08:20.583Z,14.35
2022-08-11T02:11:30.478Z,14.28
2022-08-11T02:14:11.869Z,14.21
2022-08-11T02:17:02.752Z,14.16
2022-08-11T02:20:20.904Z,14.09
2022-08-11T02:24:05.990Z,14.04
2022-08-11T02:26:25.720Z,14.00
2022-08-11T02:29:19.753Z,13.97
2022-08-11T02:32:44.884Z,13.93
2022-08-11T02:35:27.031Z,13.89
2022-08-11T02:38:15.378Z,13.85
2022-08-11T02:41:31.527Z,13.83
2022-08-11T02:44:49.247Z,13.81
2022-08-11T02:48:05.094Z,13.79
2022-08-11T02:51:22.082Z,13.75
2022-08-11T02:54:26.438Z,13.70
2022-08-11T02:57:33.517Z,13.66
2022-08-11T03:00:12.406Z,13.62
2022-08-11T03:02:56.046Z,13.58
2022-08-11T03:05:45.560Z,13.50
2022-08-11T03:08:52.633Z,13.43
2022-08-11T03:12:25.740Z,13.39
2022-08-11T03:15:26.204Z,13.36
2022-08-11T03:18:06.885Z,13.31
2022-08-11T03:21:06.585Z,13.28
2022-08-11T03:24:06.198Z,13.24
2022-08-11T03:27:22.987Z,13.20
2022-08-11T03:30:04.967Z,13.16
2022-08-11T03:33:20.528Z,13.13
2022-08-11T03:36:20.897Z,13.09
2022-08-11T03:39:14.142Z,13.07
2022-08-11T03:42:14.981Z,13.05
2022-08-11T03:45:07.657Z,13.04
2022-08-11T03:47:41.872Z,13.04
2022-08-11T03:50:55.405Z,13.05
2022-08-11T03:53:43.627Z,13.03
2022-08-11T03:56:33.367Z,13.02
2022-08-11T03:59:38.319Z,13.01
2022-08-11T04:03:00.839Z,12.98
2022-08-11T04:06:02.842Z,12.92
2022-08-11T04:08:43.312Z,12.87
2022-08-11T04:12:03.418Z,12.85
2022-08-11T04:15:34.423Z,12.84
2022-08-11T04:18:36.060Z,12.85
2022-08-11T04:21:53.795Z,12.87
2022-08-11T04:24:58.528Z,12.91
2022-08-11T04:30:03.316Z,13.01
2022-08-11T04:33:29.758Z,13.06
2022-08-11T04:37:11.266Z,13.12
2022-08-11T04:40:11.858Z,13.20
2022-08-11T04:43:23.647Z,13.30
2022-08-11T04:46:35.234Z,13.41
2022-08-11T04:50:00.995Z,13.53
2022-08-11T04:53:25.238Z,13.65
2022-08-11T04:56:43.594Z,13.78
2022-08-11T05:00:06.859Z,13.92
2022-08-11T05:03:12.904Z,14.08
2022-08-11T05:06:10.834Z,14.21
2022-08-11T05:09:14.566Z,14.36
2022-08-11T05:11:46.075Z,14.50
2022-08-11T05:14:33.167Z,14.62
2022-08-11T05:17:29.745Z,14.75
2022-08-11T05:20:16.998Z,14.89
2022-08-11T05:23:11.238Z,15.04
2022-08-11T05:26:44.378Z,15.18
2022-08-11T05:29:19.850Z,15.33
2022-08-11T05:32:19.258Z,15.48
2022-08-11T05:34:56.962Z,15.61
2022-08-11T05:37:38.837Z,15.73
2022-08-11T05:40:33.780Z,15.84
2022-08-11T05:43:31.940Z,15.98
2022-08-11T05:46:25.813Z,16.10
2022-08-11T05:49:14.318Z,16.22
2022-08-11T05:52:05.367Z,16.33
2022-08-11T05:55:07.266Z,16.44
2022-08-11T05:57:50.952Z,16.56
2022-08-11T06:00:21.118Z,16.67
2022-08-11T06:03:00.694Z,16.78
2022-08-11T06:05:43.305Z,16.89
2022-08-11T06:08:14.758Z,16.99
2022-08-11T06:10:46.116Z,17.09
2022-08-11T06:13:17.698Z,17.20
2022-08-11T06:15:53.068Z,17.31
2022-08-11T06:18:22.704Z,17.42
2022-08-11T06:20:55.985Z,17.52
2022-08-11T06:23:36.113Z,17.63
2022-08-11T06:26:13.272Z,17.73
2022-08-11T06:28:45.828Z,17.83
2022-08-11T06:31:25.792Z,17.93
2022-08-11T06:34:02.093Z,18.03
2022-08-11T06:37:05.081Z,18.14
2022-08-11T06:39:55.018Z,18.28
2022-08-11T06:42:37.299Z,18.41
2022-08-11T06:45:40.867Z,18.53
2022-08-11T06:48:19.004Z,18.67
2022-08-11T06:51:12.807Z,18.78
2022-08-11T06:53:56.402Z,18.91
2022-08-11T06:57:29.262Z,19.02
2022-08-11T07:00:07.534Z,19.15
2022-08-11T07:03:12.342Z,19.28
2022-08-11T07:05:48.648Z,19.42
2022-08-11T07:08:57.447Z,19.52
2022-08-11T07:12:18.830Z,19.65
2022-08-11T07:15:15.097Z,19.78
2022-08-11T07:18:12.395Z,19.92
2022-08-11T07:21:02.439Z,20.03
2022-08-11T07:23:55.356Z,20.15
2022-08-11T07:26:45.725Z,20.29
2022-08-11T07:29:16.399Z,20.44
2022-08-11T07:31:51.486Z,20.58
2022-08-11T07:34:40.854Z,20.73
2022-08-11T07:37:18.017Z,20.89
2022-08-11T07:39:49.364Z,21.08
2022-08-11T07:42:35.977Z,21.49
2022-08-11T07:45:28.322Z,21.90
2022-08-11T07:48:15.715Z,22.26
2022-08-11T07:51:03.695Z,22.48
2022-08-11T07:53:34.604Z,22.67
2022-08-11T07:56:38.605Z,22.87
2022-08-11T08:00:00.926Z,23.05
2022-08-11T08:02:40.221Z,23.23
2022-08-11T08:05:28.033Z,23.30
2022-08-11T08:08:15.650Z,23.38
2022-08-11T08:11:04.983Z,23.47
2022-08-11T08:13:54.579Z,23.55
2022-08-11T08:16:42.050Z,23.63
2022-08-11T08:19:17.300Z,23.71
2022-08-11T08:21:47.339Z,23.78
2022-08-11T08:24:16.721Z,23.87
2022-08-11T08:27:00.987Z,23.94
2022-08-11T08:29:53.849Z,24.05
2022-08-11T08:32:23.842Z,24.17
2022-08-11T08:34:55.759Z,24.24
2022-08-11T08:37:47.094Z,24.23
2022-08-11T08:40:15.901Z,24.37
2022-08-11T08:42:59.038Z,24.60
2022-08-11T08:45:28.787Z,24.86
2022-08-11T08:48:04.885Z,25.09
2022-08-11T08:50:57.699Z,25.30
2022-08-11T08:53:32.983Z,25.47
2022-08-11T08:56:03.334Z,25.54
2022-08-11T08:58:35.162Z,25.64
2022-08-11T09:01:04.777Z,25.77
2022-08-11T09:04:04.737Z,25.92
2022-08-11T09:06:31.490Z,26.13
2022-08-11T09:09:00.901Z,26.35
2022-08-11T09:11:55.850Z,26.54
2022-08-11T09:14:54.324Z,26.68
2022-08-11T09:17:25.594Z,26.78
2022-08-11T09:20:04.357Z,26.88
2022-08-11T09:26:18.087Z,27.13
2022-08-11T09:28:51.880Z,27.08
2022-08-11T09:31:22.908Z,27.11
2022-08-11T09:33:55.534Z,27.22
2022-08-11T09:36:43.659Z,27.39
2022-08-11T09:39:32.694Z,27.55
2022-08-11T09:42:04.341Z,27.71
2022-08-11T09:44:51.260Z,27.80
2022-08-11T09:47:35.389Z,27.82
2022-08-11T09:50:05.599Z,28.02
2022-08-11T09:52:48.271Z,28.31
2022-08-11T09:55:27.894Z,28.66
2022-08-11T09:58:41.670Z,28.88
2022-08-11T10:01:03.915Z,29.15
2022-08-11T10:03:40.553Z,29.31
2022-08-11T10:06:34.212Z,29.40
2022-08-11T10:09:07.040Z,29.46
2022-08-11T10:11:37.516Z,29.46
2022-08-11T10:14:32.565Z,29.45
2022-08-11T10:17:08.359Z,29.41
2022-08-11T10:19:38.741Z,29.08
2022-08-11T10:22:26.999Z,28.57
2022-08-11T10:25:19.634Z,28.22
2022-08-11T10:28:28.776Z,28.42
2022-08-11T10:31:10.550Z,28.76
2022-08-11T10:34:00.378Z,28.91
2022-08-11T10:39:22.275Z,29.79
2022-08-11T10:42:14.460Z,30.30
2022-08-11T10:44:58.217Z,30.82
2022-08-11T10:47:38.594Z,31.28
2022-08-11T10:50:43.916Z,31.52
2022-08-11T10:53:33.175Z,31.52
2022-08-11T10:56:23.875Z,31.47
2022-08-11T10:58:58.492Z,31.23
2022-08-11T11:01:36.665Z,30.99
2022-08-11T11:04:14.256Z,31.12
2022-08-11T11:07:22.726Z,31.48
2022-08-11T11:09:58.662Z,31.56
2022-08-11T11:13:04.755Z,31.62
2022-08-11T11:15:54.904Z,31.57
2022-08-11T11:18:36.068Z,31.15
2022-08-11T11:21:18.747Z,30.79
2022-08-11T11:24:12.686Z,30.76
2022-08-11T11:27:14.752Z,31.23
2022-08-11T11:30:07.718Z,31.77
2022-08-11T11:32:36.148Z,32.33
2022-08-11T11:35:18.612Z,32.96
2022-08-11T11:38:03.849Z,33.57
2022-08-11T11:40:37.307Z,34.22
2022-08-11T11:43:06.919Z,34.76
2022-08-11T11:45:35.969Z,34.98
2022-08-11T11:48:06.217Z,35.12
2022-08-11T11:50:38.102Z,35.34
2022-08-11T11:53:11.385Z,35.44
2022-08-11T11:55:41.458Z,35.16
2022-08-11T11:58:29.100Z,34.00
2022-08-11T12:01:19.950Z,33.51
2022-08-11T12:03:54.661Z,33.30
2022-08-11T12:06:28.102Z,32.91
2022-08-11T12:08:59.224Z,32.65
2022-08-11T12:11:49.051Z,32.70
2022-08-11T12:14:21.253Z,32.93
2022-08-11T12:16:50.429Z,33.25
2022-08-11T12:19:24.881Z,33.85
2022-08-11T12:22:16.669Z,34.57
2022-08-11T12:25:05.428Z,35.39
2022-08-11T12:27:34.244Z,36.11
2022-08-11T12:30:11.243Z,36.61
2022-08-11T12:32:42.988Z,37.12
2022-08-11T12:35:15.795Z,37.66
2022-08-11T12:38:10.690Z,38.17
2022-08-11T12:41:16.991Z,38.87
2022-08-11T12:44:06.705Z,38.76
2022-08-11T12:46:38.000Z,37.72
2022-08-11T12:49:33.387Z,36.75
2022-08-11T12:52:15.582Z,35.70
2022-08-11T12:54:57.964Z,34.80
2022-08-11T12:57:56.356Z,34.29
2022-08-11T13:00:48.827Z,34.18
2022-08-11T13:03:40.158Z,34.77
2022-08-11T13:06:09.623Z,35.67
2022-08-11T13:08:40.422Z,36.54
2022-08-11T13:11:57.018Z,37.25
2022-08-11T13:14:20.118Z,38.22
2022-08-11T13:17:08.276Z,38.92
2022-08-11T13:19:38.372Z,39.49
2022-08-11T13:22:07.515Z,38.72
2022-08-11T13:24:36.877Z,37.91
2022-08-11T13:27:07.165Z,37.27
2022-08-11T13:29:37.551Z,36.74
2022-08-11T13:32:06.609Z,36.42
2022-08-11T13:34:41.724Z,36.63
2022-08-11T13:37:14.846Z,37.49
2022-08-11T13:39:48.758Z,38.56
2022-08-11T13:42:20.601Z,39.62
2022-08-11T13:44:49.851Z,40.69
2022-08-11T13:47:23.783Z,41.32
2022-08-11T13:49:53.049Z,41.08
2022-08-11T13:52:21.830Z,40.39
2022-08-11T13:54:53.434Z,39.61
2022-08-11T13:58:08.059Z,38.32
2022-08-11T14:00:12.990Z,36.23
2022-08-11T14:02:55.981Z,34.80
2022-08-11T14:05:32.042Z,33.97
2022-08-11T14:08:04.530Z,33.78
2022-08-11T14:10:37.851Z,34.20
2022-08-11T14:13:41.583Z,34.68
2022-08-11T14:16:26.358Z,35.56
2022-08-11T14:19:04.618Z,36.61
2022-08-11T14:22:06.702Z,37.55
2022-08-11T14:24:49.611Z,38.74
2022-08-11T14:28:22.104Z,39.74
2022-08-11T14:30:35.163Z,40.70
2022-08-11T14:33:16.475Z,41.57
2022-08-11T14:35:49.442Z,42.34
2022-08-11T14:38:20.053Z,42.76
2022-08-11T14:41:08.246Z,41.97
2022-08-11T14:44:13.277Z,41.01
2022-08-11T14:47:44.110Z,40.36
2022-08-11T14:50:42.656Z,40.17
2022-08-11T14:53:39.995Z,40.33
2022-08-11T14:56:37.408Z,41.21
2022-08-11T14:59:07.549Z,42.04
2022-08-11T15:01:59.529Z,42.91
2022-08-11T15:04:36.014Z,43.87
2022-08-11T15:07:16.971Z,44.66
2022-08-11T15:10:11.747Z,45.43
2022-08-11T15:12:37.805Z,46.07
2022-08-11T15:15:28.014Z,46.71
2022-08-11T15:18:00.574Z,47.48
2022-08-11T15:20:53.852Z,47.97
2022-08-11T15:23:41.101Z,47.66
2022-08-11T15:26:14.239Z,47.74
2022-08-11T15:29:09.264Z,48.17
2022-08-11T15:31:49.094Z,48.74
2022-08-11T15:34:42.525Z,49.25
2022-08-11T15:37:26.945Z,49.43
2022-08-11T15:40:31.300Z,49.92
2022-08-11T15:43:47.039Z,50.61
2022-08-11T15:46:44.357Z,51.14
2022-08-11T15:50:11.882Z,51.49
2022-08-11T15:52:31.974Z,51.81
2022-08-11T15:55:05.562Z,52.04
2022-08-11T15:57:57.916Z,51.90
2022-08-11T16:00:46.503Z,50.21
2022-08-11T16:04:06.518Z,49.02
2022-08-11T16:06:25.997Z,49.43
2022-08-11T16:08:59.735Z,49.90
2022-08-11T16:11:29.221Z,50.39
2022-08-11T16:14:17.860Z,50.90
2022-08-11T16:16:48.372Z,51.30
2022-08-11T16:19:20.103Z,51.59
2022-08-11T16:21:52.769Z,51.92
2022-08-11T16:27:04.429Z,52.26
2022-08-11T16:27:14.682Z,52.54
2022-08-11T16:29:48.073Z,52.72
2022-08-11T16:32:23.521Z,52.94
2022-08-11T16:35:21.465Z,53.06
2022-08-11T16:38:12.345Z,53.13
2022-08-11T16:40:42.787Z,53.16
2022-08-11T16:43:36.002Z,53.19
2022-08-11T16:46:25.802Z,53.29
2022-08-11T16:48:57.007Z,53.21
2022-08-11T16:51:25.825Z,52.38
2022-08-11T16:54:04.749Z,51.57
2022-08-11T16:56:45.935Z,50.37
2022-08-11T16:59:37.441Z,48.03
2022-08-11T17:02:40.358Z,46.41
2022-08-11T17:05:31.467Z,46.36
2022-08-11T17:08:22.776Z,45.66
2022-08-11T17:11:16.701Z,43.68
2022-08-11T17:14:01.874Z,41.58
2022-08-11T17:16:39.049Z,39.86
2022-08-11T17:19:18.674Z,38.46
2022-08-11T17:22:26.272Z,37.11
2022-08-11T17:24:57.321Z,35.97
2022-08-11T17:27:27.450Z,35.04
2022-08-11T17:30:04.116Z,34.15
2022-08-11T17:33:00.805Z,33.33
2022-08-11T17:35:36.182Z,32.49
2022-08-11T17:38:12.670Z,31.80
2022-08-11T17:41:23.035Z,31.19
2022-08-11T17:44:13.497Z,30.66
2022-08-11T17:47:05.898Z,30.53
2022-08-11T17:49:39.435Z,30.16
2022-08-11T17:52:33.237Z,29.71
2022-08-11T17:55:51.505Z,29.18
2022-08-11T17:58:33.479Z,28.68
2022-08-11T18:01:09.244Z,28.24
2022-08-11T18:03:41.945Z,27.87
2022-08-11T18:06:33.815Z,27.51
2022-08-11T18:09:28.236Z,27.22
2022-08-11T18:12:17.946Z,26.91
2022-08-11T18:15:12.420Z,26.61
2022-08-11T18:18:00.805Z,26.33
2022-08-11T18:20:48.359Z,26.06
2022-08-11T18:23:46.708Z,25.81
2022-08-11T18:26:44.541Z,25.59
2022-08-11T18:29:41.896Z,25.35
2022-08-11T18:32:49.581Z,25.14
2022-08-11T18:35:42.625Z,24.93
2022-08-11T18:38:34.802Z,24.73
2022-08-11T18:41:26.287Z,24.53
2022-08-11T18:44:19.704Z,24.35
2022-08-11T18:47:10.370Z,24.18
2022-08-11T18:50:05.044Z,24.02
2022-08-11T18:52:54.237Z,23.87
2022-08-11T18:55:42.451Z,23.73
2022-08-11T18:58:34.436Z,23.62
2022-08-11T19:01:25.119Z,23.51
2022-08-11T19:04:17.196Z,23.40
2022-08-11T19:07:11.379Z,23.31
2022-08-11T19:10:02.243Z,23.21
2022-08-11T19:12:54.933Z,23.09
2022-08-11T19:15:43.206Z,22.98
2022-08-11T19:18:38.098Z,22.89
2022-08-11T19:21:28.394Z,22.79
2022-08-11T19:24:21.261Z,22.70
2022-08-11T19:27:12.210Z,22.61
2022-08-11T19:30:07.245Z,22.51
2022-08-11T19:33:02.290Z,22.40
2022-08-11T19:35:50.622Z,22.31
2022-08-11T19:38:39.900Z,22.21
2022-08-11T19:41:51.800Z,22.08
2022-08-11T19:44:36.527Z,21.91
2022-08-11T19:47:24.002Z,21.77
2022-08-11T19:50:12.746Z,21.64
2022-08-11T19:53:00.770Z,21.47
2022-08-11T19:55:49.512Z,21.33
2022-08-11T19:58:38.670Z,21.19
2022-08-11T20:01:25.729Z,21.05
2022-08-11T20:04:13.185Z,20.89
2022-08-11T20:07:01.184Z,20.74
2022-08-11T20:10:04.845Z,20.59
2022-08-11T20:12:56.733Z,20.44
2022-08-11T20:15:45.589Z,20.31
2022-08-11T20:18:34.733Z,20.18
2022-08-11T20:21:26.243Z,20.07
2022-08-11T20:24:21.330Z,19.96
2022-08-11T20:27:24.099Z,19.86
2022-08-11T20:30:15.896Z,19.76
2022-08-11T20:33:04.187Z,19.66
2022-08-11T20:35:54.854Z,19.52
2022-08-11T20:38:44.539Z,19.43
2022-08-11T20:41:32.558Z,19.34
2022-08-11T20:44:41.085Z,19.20
2022-08-11T20:47:29.858Z,19.04
2022-08-11T20:50:20.456Z,18.92
2022-08-11T20:53:10.343Z,18.80
2022-08-11T20:55:58.808Z,18.69
2022-08-11T20:59:13.890Z,18.60
2022-08-11T21:01:57.783Z,18.51
2022-08-11T21:04:54.012Z,18.45
2022-08-11T21:07:57.241Z,18.39
2022-08-11T21:10:52.279Z,18.30
2022-08-11T21:13:46.378Z,18.22
2022-08-11T21:16:40.151Z,18.14
2022-08-11T21:20:06.693Z,18.04
2022-08-11T21:23:05.201Z,17.93
2022-08-11T21:26:01.488Z,17.85
2022-08-11T21:28:52.162Z,17.79
2022-08-11T21:31:40.320Z,17.72
2022-08-11T21:34:30.409Z,17.66
2022-08-11T21:37:20.411Z,17.59
2022-08-11T21:40:13.563Z,17.51
2022-08-11T21:43:07.134Z,17.41
2022-08-11T21:45:57.188Z,17.33
2022-08-11T21:48:46.341Z,17.26
2022-08-11T21:51:33.499Z,17.19
2022-08-11T21:54:21.683Z,17.12
2022-08-11T21:57:10.249Z,17.05
2022-08-11T22:00:07.283Z,16.99
2022-08-11T22:02:56.429Z,16.91
2022-08-11T22:05:45.222Z,16.81
2022-08-11T22:08:32.698Z,16.73
2022-08-11T22:11:31.545Z,16.68
2022-08-11T22:14:20.773Z,16.60
2022-08-11T22:17:08.861Z,16.54
2022-08-11T22:19:58.215Z,16.48
2022-08-11T22:22:53.278Z,16.43
2022-08-11T22:25:55.044Z,16.40
2022-08-11T22:28:48.068Z,16.38
2022-08-11T22:31:37.026Z,16.36
2022-08-11T22:34:25.633Z,16.32
2022-08-11T22:37:26.922Z,16.28
2022-08-11T22:40:16.739Z,16.21
2022-08-11T22:43:04.168Z,16.14
2022-08-11T22:45:51.870Z,16.08
2022-08-11T22:48:39.892Z,15.98
2022-08-11T22:51:27.915Z,15.88
2022-08-11T22:54:16.537Z,15.78
2022-08-11T22:57:04.111Z,15.68
2022-08-11T22:59:52.346Z,15.56
2022-08-11T23:02:40.425Z,15.45
2022-08-11T23:05:28.259Z,15.35
2022-08-11T23:08:16.432Z,15.31
2022-08-11T23:11:08.686Z,15.27
2022-08-11T23:13:56.221Z,15.23
2022-08-11T23:16:44.177Z,15.19
2022-08-11T23:20:07.299Z,15.15
2022-08-11T23:22:49.778Z,15.11
2022-08-11T23:25:38.028Z,15.09
2022-08-11T23:28:28.597Z,15.05
2022-08-11T23:31:17.073Z,15.00
2022-08-11T23:34:37.016Z,14.94
2022-08-11T23:37:18.502Z,14.87
2022-08-11T23:40:05.413Z,14.80
2022-08-11T23:42:57.479Z,14.72
2022-08-11T23:45:46.056Z,14.63
2022-08-11T23:48:35.603Z,14.56
2022-08-11T23:51:24.928Z,14.52
2022-08-11T23:54:31.623Z,14.49
2022-08-11T23:57:23.222Z,14.46
